Etusivu
METAR-TAF:

METAR-TAF

Lentoasemat :

Genova, Italia

Leveyspiiri: 44-25N, Pituuspiiri: 008-51E, korkeus merenpinnasta: 2 m

Tämänhetkinen sää

Tämä raportti tehtiin 37 minuuttia sitten, kello 04.20 UTC
Tuuli 2 kn eri suunnista
Lämpötila 8°C
Kosteus 76%
Ilmanpaine
Näkyvyys: 1008 m
ei pilviä alle 1500 m:ssä eikä cumulonimbus-pilviä

METAR: LIMJ 290420Z VRB02KT CAVOK 08/04 1008

Aika: 05:57 (04:57 UTC)

Sääennuste

Tämä raportti tehtiin 5 tuntia ja 57 minuuttia sitten, kello 23.00 UTC
Ennuste voimassa 29. päivästä klo 00 UTC - 29. päivään klo 24 UTC
Tuuli 15 kn idästä/kaakosta
Näkyvyys 10 km tai enemmän
ei pilviä alle 1500 m:ssä eikä cumulonimbus-pilviä

TAF: LIMJ 282300Z 2900/2924 11015KT CAVOK

Säähavainnot ja -ennusteet yli 4000 lentoasemalta (METAR- ja TAF-raportit).

Käytössä olevat sääasemat on merkitty karttaan keltaisilla ja punaisilla pisteillä.

Aseta hiiri pisteen päälle nähdäksesi sääaseman nimen.

Klikkaa sitten nähdäksesi säähavainnot ja -ennusteet.

Kartan vaihtaminen: klikkaa mustalla rastilla varustettuja vihreitä pisteitä, niin voit zoomata sisään; viivalla varustettua vihreää pistettä, niin voit zoomata ulos tai vihreitä nuolia, niin pääset viereisille kartoille.


METAR-TAF: